sensor_id;sensor_type;location;lat;lon;timestamp;P1;durP1;ratioP1;P2;durP2;ratioP2
51228;SDS011;37304;52.216;6.874;2022-09-09T14:46:14;3.30;;;1.02;;
51228;SDS011;37304;52.216;6.874;2022-09-09T14:56:50;6.70;;;1.00;;
51228;SDS011;37304;52.216;6.874;2022-09-09T15:09:31;3.15;;;0.82;;
51228;SDS011;37304;52.216;6.874;2022-09-09T15:13:38;1.13;;;0.47;;
51228;SDS011;37304;52.216;6.874;2022-09-09T15:14:39;3.13;;;0.98;;
51228;SDS011;37304;52.216;6.874;2022-09-09T15:28:54;2.92;;;0.80;;
51228;SDS011;37304;52.216;6.874;2022-09-09T15:33:55;2.05;;;0.60;;
51228;SDS011;37304;52.216;6.874;2022-09-09T15:39:04;3.47;;;1.30;;
51228;SDS011;37304;52.216;6.874;2022-09-09T15:44:07;3.28;;;1.33;;
51228;SDS011;37304;52.216;6.874;2022-09-09T15:49:12;2.58;;;0.90;;
51228;SDS011;37304;52.216;6.874;2022-09-09T15:54:15;4.30;;;1.80;;
51228;SDS011;37304;52.216;6.874;2022-09-09T15:59:17;3.85;;;1.85;;
51228;SDS011;37304;52.216;6.874;2022-09-09T16:04:18;3.83;;;1.33;;
51228;SDS011;37304;52.216;6.874;2022-09-09T16:09:23;5.68;;;1.70;;
51228;SDS011;37304;52.216;6.874;2022-09-09T16:14:24;5.70;;;2.00;;
51228;SDS011;37304;52.216;6.874;2022-09-09T16:19:25;18.77;;;2.40;;
51228;SDS011;37304;52.216;6.874;2022-09-09T16:24:25;6.87;;;1.87;;
51228;SDS011;37304;52.216;6.874;2022-09-09T16:29:26;3.58;;;1.73;;
51228;SDS011;37304;52.216;6.874;2022-09-09T16:34:27;3.03;;;1.48;;
51228;SDS011;37304;52.216;6.874;2022-09-09T16:39:27;5.53;;;1.60;;
51228;SDS011;37304;52.216;6.874;2022-09-09T16:44:27;6.10;;;1.80;;
51228;SDS011;37304;52.216;6.874;2022-09-09T16:49:28;9.17;;;2.50;;
51228;SDS011;37304;52.216;6.874;2022-09-09T16:54:28;5.73;;;2.10;;
51228;SDS011;37304;52.216;6.874;2022-09-09T16:59:28;3.83;;;2.17;;
51228;SDS011;37304;52.216;6.874;2022-09-09T17:04:31;7.22;;;2.10;;
51228;SDS011;37304;52.216;6.874;2022-09-09T17:09:32;2.05;;;1.63;;
51228;SDS011;37304;52.216;6.874;2022-09-09T17:14:32;2.87;;;1.77;;
51228;SDS011;37304;52.216;6.874;2022-09-09T17:19:33;3.77;;;1.47;;
51228;SDS011;37304;52.216;6.874;2022-09-09T17:24:34;2.65;;;1.10;;
51228;SDS011;37304;52.216;6.874;2022-09-09T17:29:34;3.63;;;1.83;;
51228;SDS011;37304;52.216;6.874;2022-09-09T17:34:35;4.20;;;1.60;;
51228;SDS011;37304;52.216;6.874;2022-09-09T17:39:36;2.70;;;1.57;;
51228;SDS011;37304;52.216;6.874;2022-09-09T17:44:36;4.30;;;1.70;;
51228;SDS011;37304;52.216;6.874;2022-09-09T17:49:36;6.17;;;2.10;;
51228;SDS011;37304;52.216;6.874;2022-09-09T17:54:37;4.20;;;2.20;;
51228;SDS011;37304;52.216;6.874;2022-09-09T17:59:38;6.47;;;2.30;;
51228;SDS011;37304;52.216;6.874;2022-09-09T18:04:38;4.97;;;2.40;;
51228;SDS011;37304;52.216;6.874;2022-09-09T18:09:39;3.80;;;1.87;;
51228;SDS011;37304;52.216;6.874;2022-09-09T18:14:39;2.97;;;2.17;;
51228;SDS011;37304;52.216;6.874;2022-09-09T18:19:39;7.77;;;2.40;;
51228;SDS011;37304;52.216;6.874;2022-09-09T18:24:40;8.15;;;2.42;;
51228;SDS011;37304;52.216;6.874;2022-09-09T18:29:40;4.37;;;1.93;;
51228;SDS011;37304;52.216;6.874;2022-09-09T18:34:40;2.27;;;1.00;;
51228;SDS011;37304;52.216;6.874;2022-09-09T18:39:41;4.27;;;1.67;;
51228;SDS011;37304;52.216;6.874;2022-09-09T18:44:41;2.30;;;1.40;;
51228;SDS011;37304;52.216;6.874;2022-09-09T18:49:42;2.97;;;1.17;;
51228;SDS011;37304;52.216;6.874;2022-09-09T18:54:42;3.35;;;1.40;;
51228;SDS011;37304;52.216;6.874;2022-09-09T18:59:45;1.77;;;1.23;;
51228;SDS011;37304;52.216;6.874;2022-09-09T19:04:45;2.53;;;1.30;;
51228;SDS011;37304;52.216;6.874;2022-09-09T19:09:45;2.95;;;1.23;;
51228;SDS011;37304;52.216;6.874;2022-09-09T19:14:46;2.03;;;1.25;;
51228;SDS011;37304;52.216;6.874;2022-09-09T19:19:46;3.40;;;2.00;;
51228;SDS011;37304;52.216;6.874;2022-09-09T19:24:50;4.00;;;2.30;;
51228;SDS011;37304;52.216;6.874;2022-09-09T19:29:50;4.10;;;2.03;;
51228;SDS011;37304;52.216;6.874;2022-09-09T19:34:51;2.78;;;1.85;;
51228;SDS011;37304;52.216;6.874;2022-09-09T19:39:51;4.83;;;2.77;;
51228;SDS011;37304;52.216;6.874;2022-09-09T19:44:52;5.70;;;2.73;;
51228;SDS011;37304;52.216;6.874;2022-09-09T19:49:52;5.40;;;3.00;;
51228;SDS011;37304;52.216;6.874;2022-09-09T19:54:52;7.73;;;3.70;;
51228;SDS011;37304;52.216;6.874;2022-09-09T19:59:53;5.80;;;3.47;;
51228;SDS011;37304;52.216;6.874;2022-09-09T20:04:54;13.13;;;5.57;;
51228;SDS011;37304;52.216;6.874;2022-09-09T20:09:55;9.50;;;5.10;;
51228;SDS011;37304;52.216;6.874;2022-09-09T20:14:55;8.37;;;4.53;;
51228;SDS011;37304;52.216;6.874;2022-09-09T20:19:55;11.10;;;4.82;;
51228;SDS011;37304;52.216;6.874;2022-09-09T20:24:56;9.05;;;4.97;;
51228;SDS011;37304;52.216;6.874;2022-09-09T20:29:56;6.97;;;4.53;;
51228;SDS011;37304;52.216;6.874;2022-09-09T20:34:57;8.73;;;4.65;;
51228;SDS011;37304;52.216;6.874;2022-09-09T20:39:57;7.43;;;4.93;;
51228;SDS011;37304;52.216;6.874;2022-09-09T20:44:59;7.07;;;4.93;;
51228;SDS011;37304;52.216;6.874;2022-09-09T20:50:00;9.30;;;5.05;;
51228;SDS011;37304;52.216;6.874;2022-09-09T20:55:00;8.93;;;5.60;;
51228;SDS011;37304;52.216;6.874;2022-09-09T21:00:02;7.80;;;6.00;;
51228;SDS011;37304;52.216;6.874;2022-09-09T21:05:04;8.93;;;5.47;;
51228;SDS011;37304;52.216;6.874;2022-09-09T21:10:05;10.98;;;5.75;;
51228;SDS011;37304;52.216;6.874;2022-09-09T21:15:09;8.80;;;5.40;;
51228;SDS011;37304;52.216;6.874;2022-09-09T21:20:10;8.67;;;5.37;;
51228;SDS011;37304;52.216;6.874;2022-09-09T21:25:10;7.75;;;5.35;;
51228;SDS011;37304;52.216;6.874;2022-09-09T21:30:11;7.13;;;4.88;;
51228;SDS011;37304;52.216;6.874;2022-09-09T21:35:12;6.65;;;4.65;;
51228;SDS011;37304;52.216;6.874;2022-09-09T21:40:12;7.10;;;4.27;;
51228;SDS011;37304;52.216;6.874;2022-09-09T21:45:12;5.73;;;3.90;;
51228;SDS011;37304;52.216;6.874;2022-09-09T21:50:13;7.82;;;4.05;;
51228;SDS011;37304;52.216;6.874;2022-09-09T21:55:15;5.60;;;3.60;;
51228;SDS011;37304;52.216;6.874;2022-09-09T22:00:15;5.22;;;3.10;;
51228;SDS011;37304;52.216;6.874;2022-09-09T22:05:17;5.40;;;3.38;;
51228;SDS011;37304;52.216;6.874;2022-09-09T22:10:17;6.90;;;3.57;;
51228;SDS011;37304;52.216;6.874;2022-09-09T22:15:19;5.97;;;2.83;;
51228;SDS011;37304;52.216;6.874;2022-09-09T22:20:20;5.55;;;2.95;;
51228;SDS011;37304;52.216;6.874;2022-09-09T22:25:20;6.13;;;3.50;;
51228;SDS011;37304;52.216;6.874;2022-09-09T22:30:21;6.88;;;2.80;;
51228;SDS011;37304;52.216;6.874;2022-09-09T22:35:21;4.37;;;2.93;;
51228;SDS011;37304;52.216;6.874;2022-09-09T22:40:21;5.47;;;3.00;;
51228;SDS011;37304;52.216;6.874;2022-09-09T22:45:22;3.87;;;2.60;;
51228;SDS011;37304;52.216;6.874;2022-09-09T22:50:22;5.72;;;2.60;;
51228;SDS011;37304;52.216;6.874;2022-09-09T22:55:22;5.67;;;3.10;;
51228;SDS011;37304;52.216;6.874;2022-09-09T23:00:23;5.23;;;2.83;;
51228;SDS011;37304;52.216;6.874;2022-09-09T23:05:24;4.65;;;3.05;;
51228;SDS011;37304;52.216;6.874;2022-09-09T23:10:24;5.73;;;3.17;;
51228;SDS011;37304;52.216;6.874;2022-09-09T23:15:26;5.88;;;3.20;;
51228;SDS011;37304;52.216;6.874;2022-09-09T23:20:27;6.13;;;3.00;;
51228;SDS011;37304;52.216;6.874;2022-09-09T23:25:28;7.77;;;3.07;;
51228;SDS011;37304;52.216;6.874;2022-09-09T23:30:29;4.93;;;3.17;;
51228;SDS011;37304;52.216;6.874;2022-09-09T23:35:29;6.03;;;3.60;;
51228;SDS011;37304;52.216;6.874;2022-09-09T23:40:33;6.53;;;3.42;;
51228;SDS011;37304;52.216;6.874;2022-09-09T23:45:33;6.85;;;3.70;;
51228;SDS011;37304;52.216;6.874;2022-09-09T23:50:34;6.93;;;3.67;;
51228;SDS011;37304;52.216;6.874;2022-09-09T23:55:34;5.93;;;3.13;;
